Terminal Aerodrome Forecast
Issued by NWS Duluth, MN

Home | Current Version | Previous Version | Text Only | Print | Product List | Glossary On
Versions: 1 2 3 4 5 6 7 8 9 10 11 12 13 14 15 16 17
000
FTUS43 KDLH 221600 AAB
TAFDLH
TAF AMD
KDLH 221633Z 2217/2312 32015G23KT P6SM SCT025
     FM222200 34012G19KT P6SM FEW040
     FM230000 34007KT P6SM SKC=

USA.gov is the U.S. government's official web portal to all federal, state and local government web resources and services.